Data for 04/13/2010

Time Sea-Level Adjusted Pressure Absolute Pressure Temperature Relative Humidity Dew Point   
(mb) (inHg) (mb) (inHg) (C) (F) (%) (C) (F)
00:05 1009 29.8 838 24.75 1.7 35.1 84 -0.7 30.8
00:10 1009 29.8 838 24.75 1.7 35.1 84 -0.6 30.9
00:15 1009 29.8 838 24.75 1.8 35.2 83 -0.7 30.7
00:20 1009 29.8 838 24.75 1.9 35.4 81 -1 30.3
00:25 1009 29.8 838 24.75 2 35.6 80 -1 30.2
00:30 1009 29.8 838 24.75 2 35.7 80 -1.1 30
00:35 1009 29.8 838 24.75 2.1 35.7 79 -1.1 30
00:40 1009 29.8 838 24.75 2.1 35.7 80 -1.1 30.1
00:45 1009 29.8 838 24.75 2.1 35.7 79 -1.2 29.9
00:50 1009 29.8 838 24.75 2.1 35.7 79 -1.2 29.9
00:55 1008 29.77 838 24.75 2.1 35.7 79 -1.2 29.9
01:00 1008 29.77 837 24.72 2.1 35.8 79 -1.2 29.8
01:05 1008 29.77 837 24.72 2.1 35.8 79 -1.2 29.9
01:10 1008 29.77 837 24.72 2.1 35.7 79 -1.1 29.9
01:15 1008 29.77 837 24.72 2.1 35.8 78 -1.3 29.7
01:20 1008 29.77 837 24.72 2.2 35.9 79 -1.1 30
01:25 1008 29.77 837 24.72 2.1 35.8 79 -1.1 30
01:30 1008 29.77 837 24.72 2.1 35.7 80 -1.1 30
01:35 1008 29.77 837 24.72 2 35.6 80 -1.1 30
01:40 1008 29.77 837 24.72 2 35.6 80 -1.2 29.9
01:45 1008 29.77 837 24.72 2 35.6 79 -1.2 29.8
01:50 1008 29.77 837 24.72 2 35.6 79 -1.2 29.8
01:55 1008 29.77 837 24.72 2 35.5 79 -1.3 29.7
02:00 1008 29.77 837 24.72 2 35.6 79 -1.2 29.8
02:05 1008 29.77 837 24.72 2 35.5 79 -1.2 29.8
02:10 1007 29.74 837 24.72 1.9 35.4 80 -1.2 29.8
02:15 1007 29.74 837 24.72 1.8 35.3 80 -1.2 29.8
02:20 1007 29.74 837 24.72 1.8 35.2 81 -1.2 29.9
02:25 1007 29.74 837 24.72 1.7 35.1 81 -1.2 29.9
02:30 1007 29.74 837 24.72 1.7 35.1 81 -1.2 29.9
02:35 1007 29.74 837 24.72 1.8 35.2 81 -1.2 29.9
02:40 1008 29.77 837 24.72 1.8 35.2 81 -1.2 29.9
02:45 1008 29.77 837 24.72 1.8 35.2 81 -1.1 30
02:50 1008 29.77 837 24.72 1.8 35.3 81 -1.1 30
02:55 1007 29.74 837 24.72 1.8 35.3 81 -1 30.1
03:00 1007 29.74 836 24.69 1.7 35.1 82 -1.1 30
03:05 1007 29.74 836 24.69 1.6 34.9 82 -1.1 30
03:10 1007 29.74 836 24.69 1.5 34.7 82 -1.2 29.8
03:15 1006 29.71 836 24.69 1.4 34.6 82 -1.3 29.7
03:20 1006 29.71 836 24.69 1.4 34.5 83 -1.2 29.9
03:25 1006 29.71 836 24.69 1.5 34.6 82 -1.3 29.6
03:30 1007 29.74 836 24.69 1.7 35 81 -1.2 29.8
03:35 1006 29.71 836 24.69 1.7 35 81 -1.2 29.8
03:40 1006 29.71 835 24.66 1.6 34.8 82 -1.2 29.8
03:45 1006 29.71 835 24.66 1.4 34.5 83 -1.1 29.9
03:50 1006 29.71 835 24.66 1.3 34.3 84 -1.2 29.9
03:55 1006 29.71 836 24.69 1.3 34.3 84 -1.2 29.8
04:00 1006 29.71 836 24.69 1.2 34.1 84 -1.2 29.9
04:05 1006 29.71 836 24.69 1.2 34.1 84 -1.2 29.9
04:10 1006 29.71 836 24.69 1.2 34.1 85 -1 30.1
04:15 1006 29.71 836 24.69 1.1 34 86 -1.1 30.1
04:20 1006 29.71 835 24.66 1.1 34 85 -1.2 29.9
04:25 1006 29.71 835 24.66 1.1 34.1 85 -1.1 30.1
04:30 1006 29.71 835 24.66 1.1 33.9 87 -0.9 30.4
04:35 1006 29.71 835 24.66 1 33.8 87 -0.9 30.3
04:40 1006 29.71 835 24.66 1.1 34 86 -1 30.3
04:45 1006 29.71 835 24.66 1 33.9 87 -0.9 30.4
04:50 1006 29.71 835 24.66 1.1 34 87 -0.9 30.4
04:55 1006 29.71 835 24.66 1.1 34 87 -0.9 30.4
05:00 1006 29.71 835 24.66 1.1 33.9 87 -0.9 30.4
05:05 1006 29.71 835 24.66 1 33.8 87 -0.9 30.4
05:10 1006 29.71 835 24.66 0.9 33.6 88 -0.9 30.4
05:15 1006 29.71 835 24.66 0.8 33.5 88 -0.9 30.4
05:20 1006 29.71 835 24.66 0.7 33.3 90 -0.8 30.6
05:25 1006 29.71 835 24.66 0.7 33.2 90 -0.8 30.6
05:30 1006 29.71 835 24.66 0.5 33 90 -0.8 30.5
05:35 1006 29.71 835 24.66 0.5 32.8 91 -0.9 30.5
05:40 1006 29.71 835 24.66 0.5 32.9 91 -0.8 30.5
05:45 1006 29.71 835 24.66 0.5 32.9 91 -0.8 30.6
05:50 1005 29.68 835 24.66 0.5 32.8 92 -0.8 30.6
05:55 1005 29.68 835 24.66 0.4 32.7 92 -0.8 30.6
06:00 1006 29.71 835 24.66 0.4 32.6 92 -0.8 30.6
06:05 1006 29.71 835 24.66 0.4 32.7 92 -0.8 30.6
06:10 1006 29.71 835 24.66 0.4 32.8 92 -0.7 30.8
06:15 1006 29.71 835 24.66 0.4 32.7 93 -0.6 30.9
06:20 1005 29.68 835 24.66 0.3 32.6 93 -0.6 30.8
06:25 1005 29.68 834 24.63 0.3 32.5 93 -0.7 30.7
06:30 1005 29.68 834 24.63 0.3 32.5 94 -0.6 30.9
06:35 1005 29.68 834 24.63 0.4 32.6 94 -0.5 31
06:40 1005 29.68 834 24.63 0.5 32.9 94 -0.4 31.4
06:45 1005 29.68 834 24.63 0.5 32.9 94 -0.4 31.3
06:50 1005 29.68 834 24.63 0.3 32.6 94 -0.5 31.1
06:55 1005 29.68 834 24.63 0.4 32.7 94 -0.4 31.3
07:00 1005 29.68 834 24.63 0.5 32.9 95 -0.3 31.5
07:05 1005 29.68 834 24.63 0.4 32.7 95 -0.3 31.5
07:10 1005 29.68 834 24.63 0.2 32.4 95 -0.5 31.2
07:15 1005 29.68 834 24.63 0.1 32.2 96 -0.5 31
07:20 1005 29.68 834 24.63 0.1 32.2 96 -0.5 31.1
07:25 1005 29.68 834 24.63 0.1 32.2 96 -0.5 31.1
07:30 1005 29.68 834 24.63 0.1 32.3 96 -0.5 31.1
07:35 1004 29.65 834 24.63 0.1 32.2 95 -0.5 31.1
07:40 1004 29.65 833 24.6 0.2 32.3 95 -0.5 31.1
07:45 1004 29.65 834 24.63 0.1 32.2 95 -0.5 31
07:50 1004 29.65 834 24.63 0.1 32.2 95 -0.6 31
07:55 1004 29.65 834 24.63 0 32.1 95 -0.6 30.9
08:00 1004 29.65 834 24.63 -0 32 96 -0.6 30.9
08:05 1005 29.68 834 24.63 -0.1 31.9 96 -0.7 30.8
08:10 1005 29.68 834 24.63 -0.1 31.8 96 -0.6 30.9
08:15 1005 29.68 834 24.63 -0.1 31.9 96 -0.6 31
08:20 1005 29.68 834 24.63 -0 31.9 96 -0.6 31
08:25 1005 29.68 834 24.63 -0.2 31.6 97 -0.7 30.8
08:30 1005 29.68 834 24.63 -0.1 31.8 98 -0.4 31.3
08:35 1005 29.68 834 24.63 0.2 32.3 97 -0.3 31.5
08:40 1004 29.65 834 24.63 0.2 32.3 96 -0.4 31.3
08:45 1004 29.65 834 24.63 -0.1 31.9 96 -0.6 30.9
08:50 1004 29.65 834 24.63 -0.3 31.5 97 -0.8 30.6
08:55 1004 29.65 834 24.63 -0.3 31.5 97 -0.7 30.7
09:00 1004 29.65 834 24.63 -0.2 31.6 97 -0.6 30.9
09:05 1004 29.65 834 24.63 -0.2 31.6 97 -0.7 30.8
09:10 1004 29.65 834 24.63 -0.3 31.5 98 -0.6 30.9
09:15 1005 29.68 834 24.63 -0.3 31.5 98 -0.6 31
09:20 1005 29.68 834 24.63 -0.3 31.4 98 -0.6 31
09:25 1005 29.68 834 24.63 -0.4 31.3 98 -0.7 30.7
09:30 1005 29.68 834 24.63 -0.5 31.1 98 -0.8 30.6
09:35 1004 29.65 834 24.63 -0.6 31 98 -0.8 30.5
09:40 1004 29.65 834 24.63 -0.7 30.8 98 -0.9 30.3
09:45 1004 29.65 834 24.63 -0.7 30.7 98 -1 30.2
09:50 1004 29.65 834 24.63 -0.8 30.6 98 -1 30.2
09:55 1005 29.68 834 24.63 -0.9 30.5 98 -1.1 30
10:00 1005 29.68 834 24.63 -0.8 30.5 99 -1 30.1
10:05 1004 29.65 834 24.63 -0.7 30.7 98 -1 30.3
10:10 1004 29.65 834 24.63 -0.7 30.8 99 -0.9 30.4
10:15 1005 29.68 834 24.63 -0.7 30.8 98 -0.9 30.4
10:20 1005 29.68 834 24.63 -0.6 30.9 99 -0.8 30.5
10:25 1005 29.68 834 24.63 -0.7 30.8 98 -0.9 30.4
10:30 1005 29.68 834 24.63 -0.7 30.8 98 -0.9 30.3
10:35 1005 29.68 834 24.63 -0.7 30.8 98 -0.9 30.3
10:40 1005 29.68 834 24.63 -0.7 30.7 98 -0.9 30.3
10:45 1005 29.68 834 24.63 -0.7 30.8 98 -0.9 30.4
10:50 1005 29.68 834 24.63 -0.7 30.8 99 -0.9 30.5
10:55 1005 29.68 835 24.66 -0.6 30.9 99 -0.8 30.6
11:00 1005 29.68 835 24.66 -0.6 31 99 -0.8 30.6
11:05 1005 29.68 835 24.66 -0.6 30.9 98 -0.8 30.5
11:10 1006 29.71 835 24.66 -0.6 31 98 -0.8 30.6
11:15 1006 29.71 835 24.66 -0.5 31.1 98 -0.8 30.6
11:20 1006 29.71 835 24.66 -0.4 31.2 99 -0.6 30.9
11:25 1006 29.71 835 24.66 -0.4 31.3 99 -0.6 30.9
11:30 1006 29.71 835 24.66 -0.3 31.4 98 -0.6 31
11:35 1006 29.71 835 24.66 -0.3 31.5 98 -0.5 31.1
11:40 1006 29.71 835 24.66 -0.2 31.7 98 -0.4 31.2
11:45 1006 29.71 835 24.66 -0.1 31.8 98 -0.4 31.3
11:50 1006 29.71 835 24.66 -0.1 31.9 98 -0.4 31.3
11:55 1006 29.71 835 24.66 0.1 32.2 97 -0.3 31.4
12:00 1006 29.71 835 24.66 -0 32 97 -0.5 31.1
12:05 1006 29.71 835 24.66 -0.2 31.6 97 -0.6 30.9
12:10 1006 29.71 835 24.66 -0.2 31.6 97 -0.7 30.8
12:15 1006 29.71 835 24.66 -0.3 31.4 97 -0.8 30.5
12:20 1006 29.71 836 24.69 -0.3 31.4 97 -0.8 30.5
12:25 1006 29.71 836 24.69 -0.3 31.4 97 -0.8 30.6
12:30 1006 29.71 836 24.69 -0.3 31.4 97 -0.8 30.5
12:35 1006 29.71 836 24.69 -0.3 31.4 97 -0.8 30.5
12:40 1007 29.74 836 24.69 -0.2 31.7 96 -0.7 30.7
12:45 1007 29.74 836 24.69 -0.1 31.7 97 -0.6 30.9
12:50 1007 29.74 836 24.69 -0 32 96 -0.6 30.9
12:55 1007 29.74 836 24.69 -0.1 31.9 96 -0.6 30.9
13:00 1007 29.74 836 24.69 -0.1 31.8 96 -0.7 30.8
13:05 1007 29.74 836 24.69 -0.1 31.8 96 -0.6 30.9
13:10 1007 29.74 836 24.69 -0 32 96 -0.6 30.9
13:15 1007 29.74 836 24.69 -0.1 31.8 96 -0.7 30.8
13:20 1007 29.74 836 24.69 -0.1 31.8 95 -0.7 30.7
13:25 1007 29.74 836 24.69 -0.1 31.8 96 -0.8 30.6
13:30 1007 29.74 836 24.69 -0 31.9 95 -0.7 30.8
13:35 1007 29.74 836 24.69 -0.1 31.9 96 -0.7 30.8
13:40 1007 29.74 837 24.72 0 32 95 -0.7 30.7
13:45 1007 29.74 837 24.72 -0 32 95 -0.7 30.8
13:50 1007 29.74 837 24.72 0.1 32.2 95 -0.6 31
13:55 1008 29.77 837 24.72 0.1 32.2 95 -0.6 30.8
14:00 1008 29.77 837 24.72 0.1 32.2 95 -0.6 30.9
14:05 1008 29.77 837 24.72 0.2 32.3 95 -0.6 31
14:10 1008 29.77 837 24.72 0.2 32.4 95 -0.5 31.2
14:15 1008 29.77 837 24.72 0.3 32.5 95 -0.4 31.2
14:20 1008 29.77 837 24.72 0.2 32.4 95 -0.5 31.1
14:25 1008 29.77 837 24.72 0.3 32.6 95 -0.4 31.2
14:30 1008 29.77 837 24.72 0.4 32.6 95 -0.4 31.3
14:35 1008 29.77 837 24.72 0.5 32.8 95 -0.3 31.5
14:40 1008 29.77 837 24.72 0.6 33.1 95 -0.1 31.8
14:45 1008 29.77 837 24.72 0.6 33.2 94 -0.3 31.5
14:50 1008 29.77 837 24.72 0.7 33.2 93 -0.3 31.5
14:55 1008 29.77 837 24.72 0.8 33.5 94 -0.1 31.9
15:00 1008 29.77 837 24.72 0.7 33.3 94 -0.2 31.7
15:05 1008 29.77 837 24.72 0.6 33.1 94 -0.2 31.6
15:10 1008 29.77 837 24.72 0.8 33.4 94 -0.1 31.8
15:15 1008 29.77 837 24.72 0.8 33.4 93 -0.1 31.7
15:20 1008 29.77 837 24.72 0.6 33.2 94 -0.2 31.6
15:25 1008 29.77 837 24.72 0.7 33.2 94 -0.1 31.8
15:30 1008 29.77 837 24.72 0.9 33.6 94 0 32
15:35 1008 29.77 837 24.72 0.9 33.6 92 -0.2 31.6
15:40 1008 29.77 837 24.72 0.6 33.1 93 -0.4 31.3
15:45 1008 29.77 837 24.72 0.7 33.2 93 -0.4 31.3
15:50 1008 29.77 837 24.72 0.6 33.1 93 -0.5 31.2
15:55 1008 29.77 837 24.72 0.4 32.8 93 -0.6 31
16:00 1008 29.77 837 24.72 0.4 32.6 94 -0.5 31.1
16:05 1008 29.77 837 24.72 0.3 32.6 93 -0.6 30.9
16:10 1008 29.77 838 24.75 0.4 32.6 93 -0.6 30.9
16:15 1008 29.77 838 24.75 0.5 32.9 93 -0.5 31
16:20 1008 29.77 838 24.75 0.6 33.1 92 -0.6 31
16:25 1008 29.77 838 24.75 0.7 33.3 92 -0.4 31.3
16:30 1008 29.77 838 24.75 0.9 33.6 92 -0.3 31.5
16:35 1008 29.77 838 24.75 1 33.8 91 -0.3 31.5
16:40 1008 29.77 838 24.75 1 33.8 91 -0.2 31.6
16:45 1008 29.77 838 24.75 1.2 34.1 91 -0.2 31.6
16:50 1008 29.77 838 24.75 1.1 33.9 92 -0.1 31.9
16:55 1008 29.77 838 24.75 1.3 34.4 91 -0.1 31.9
17:00 1008 29.77 838 24.75 1.3 34.4 92 0.1 32.2
17:05 1009 29.8 838 24.75 1.5 34.7 90 0 32
17:10 1009 29.8 838 24.75 1.4 34.5 90 -0.1 31.8
17:15 1009 29.8 838 24.75 1.4 34.5 89 -0.3 31.5
17:20 1009 29.8 838 24.75 1.2 34.1 89 -0.5 31.2
17:25 1009 29.8 838 24.75 1.1 34 90 -0.4 31.3
17:30 1009 29.8 838 24.75 1 33.8 91 -0.4 31.3
17:35 1009 29.8 838 24.75 1 33.9 90 -0.4 31.2
17:40 1009 29.8 838 24.75 1.1 33.9 89 -0.5 31.1
17:45 1009 29.8 838 24.75 1 33.8 90 -0.5 31.1
17:50 1009 29.8 838 24.75 1 33.7 90 -0.5 31.1
17:55 1009 29.8 838 24.75 0.8 33.5 90 -0.7 30.7
18:00 1009 29.8 838 24.75 0.7 33.2 90 -0.7 30.7
18:05 1009 29.8 838 24.75 0.7 33.2 90 -0.8 30.6
18:10 1009 29.8 838 24.75 0.6 33.1 91 -0.8 30.6
18:15 1009 29.8 838 24.75 0.7 33.2 91 -0.7 30.8
18:20 1009 29.8 838 24.75 0.7 33.3 91 -0.6 30.9
18:25 1009 29.8 838 24.75 0.8 33.5 90 -0.6 30.9
18:30 1009 29.8 838 24.75 0.8 33.4 91 -0.5 31.1
18:35 1009 29.8 838 24.75 0.8 33.5 91 -0.5 31.2
18:40 1009 29.8 838 24.75 0.8 33.5 91 -0.5 31
18:45 1009 29.8 838 24.75 0.8 33.4 91 -0.5 31
18:50 1009 29.8 838 24.75 0.8 33.5 90 -0.6 30.9
18:55 1009 29.8 838 24.75 0.9 33.6 90 -0.6 30.8
19:00 1009 29.8 838 24.75 0.8 33.5 90 -0.6 30.9
19:05 1009 29.8 838 24.75 0.9 33.6 89 -0.7 30.7
19:10 1009 29.8 838 24.75 1 33.9 88 -0.8 30.6
19:15 1009 29.8 838 24.75 1.2 34.2 88 -0.5 31.1
19:20 1009 29.8 838 24.75 1.1 33.9 91 -0.3 31.5
19:25 1009 29.8 838 24.75 1 33.8 91 -0.3 31.4
19:30 1009 29.8 838 24.75 1 33.8 91 -0.4 31.3
19:35 1009 29.8 838 24.75 0.8 33.4 91 -0.5 31.2
19:40 1009 29.8 838 24.75 0.7 33.3 92 -0.5 31.2
19:45 1009 29.8 838 24.75 0.9 33.6 90 -0.6 30.9
19:50 1009 29.8 838 24.75 1.1 33.9 89 -0.5 31
19:55 1009 29.8 838 24.75 1.2 34.2 87 -0.8 30.6
20:00 1009 29.8 838 24.75 1.4 34.6 82 -1.3 29.7
20:05 1009 29.8 838 24.75 2.3 36.2 73 -2.1 28.2
20:10 1009 29.8 838 24.75 3 37.5 69 -2.1 28.3
20:15 1009 29.8 838 24.75 3.3 37.9 68 -2 28.4
20:20 1009 29.8 838 24.75 3.3 37.9 68 -2 28.4
20:25 1009 29.8 838 24.75 3.3 38 66 -2.3 27.9
20:30 1009 29.8 838 24.75 3.4 38.2 66 -2.3 27.9
20:35 1009 29.8 838 24.75 3.4 38.1 66 -2.3 27.8
20:40 1009 29.8 838 24.75 3.3 37.9 68 -2 28.4
20:45 1009 29.8 838 24.75 3.2 37.8 67 -2.3 27.9
20:50 1009 29.8 838 24.75 3.2 37.8 68 -2.2 28
20:55 1009 29.8 839 24.78 3.1 37.6 69 -2 28.3
21:00 1009 29.8 839 24.78 3 37.4 69 -2.2 28
21:05 1010 29.83 839 24.78 2.9 37.3 68 -2.3 27.8
21:10 1010 29.83 839 24.78 2.9 37.2 68 -2.5 27.5
21:15 1010 29.83 839 24.78 2.8 37 68 -2.5 27.5
21:20 1010 29.83 839 24.78 2.8 37 66 -3 26.6
21:25 1010 29.83 839 24.78 2.7 36.9 67 -2.8 26.9
21:30 1010 29.83 839 24.78 2.7 36.9 66 -3 26.5
21:35 1010 29.83 839 24.78 2.8 37.1 67 -2.8 27
21:40 1010 29.83 839 24.78 2.8 37 65 -3.2 26.2
21:45 1010 29.83 839 24.78 2.8 37.1 67 -2.8 27
21:50 1010 29.83 839 24.78 2.7 36.9 68 -2.7 27.2
21:55 1010 29.83 839 24.78 2.7 36.9 68 -2.7 27.2
22:00 1010 29.83 839 24.78 2.7 36.9 66 -3 26.7
22:05 1010 29.83 839 24.78 2.8 37.1 66 -2.8 26.9
22:10 1010 29.83 839 24.78 2.8 37 66 -2.9 26.8
22:15 1010 29.83 839 24.78 2.9 37.2 64 -3.3 26.1
22:20 1010 29.83 839 24.78 3 37.5 62 -3.5 25.8
22:25 1010 29.83 839 24.78 3.1 37.6 62 -3.5 25.7
22:30 1010 29.83 839 24.78 3.1 37.6 65 -2.7 27.1
22:35 1010 29.83 839 24.78 3 37.3 64 -3.1 26.4
22:40 1010 29.83 839 24.78 3.1 37.5 63 -3.3 26
22:45 1010 29.83 839 24.78 3.3 37.9 62 -3.3 26.1
22:50 1010 29.83 839 24.78 3.4 38.2 57 -4.2 24.4
22:55 1010 29.83 839 24.78 3.6 38.4 59 -3.6 25.4
23:00 1010 29.83 839 24.78 3.5 38.4 60 -3.4 25.9
23:05 1010 29.83 839 24.78 3.3 38 60 -3.6 25.4
23:10 1010 29.83 839 24.78 3.3 38 61 -3.4 25.9
23:15 1010 29.83 839 24.78 3.4 38.1 60 -3.7 25.3
23:20 1010 29.83 839 24.78 3.6 38.6 59 -3.6 25.5
23:25 1010 29.83 839 24.78 3.7 38.6 59 -3.5 25.6
23:30 1010 29.83 839 24.78 3.5 38.3 61 -3.3 26.1
23:35 1010 29.83 839 24.78 3.6 38.4 60 -3.4 25.8
23:40 1010 29.83 839 24.78 3.7 38.6 61 -3.2 26.3
23:45 1010 29.83 839 24.78 3.7 38.6 60 -3.3 26.1
23:50 1010 29.83 839 24.78 3.7 38.6 60 -3.3 26.1
23:55 1010 29.83 839 24.78 3.6 38.5 62 -3 26.6
24:00 1010 29.83 839 24.78 3.4 38.1 63 -3 26.7